sensor_id;sensor_type;location;lat;lon;timestamp;P1;durP1;ratioP1;P2;durP2;ratioP2
19384;SDS011;9828;54.122;17.974;2023-03-01T00:02:14;11.17;;;5.27;;
19384;SDS011;9828;54.122;17.974;2023-03-01T00:07:35;13.23;;;5.30;;
19384;SDS011;9828;54.122;17.974;2023-03-01T00:12:56;11.50;;;5.37;;
19384;SDS011;9828;54.122;17.974;2023-03-01T00:18:17;13.07;;;6.37;;
19384;SDS011;9828;54.122;17.974;2023-03-01T00:23:39;15.87;;;7.87;;
19384;SDS011;9828;54.122;17.974;2023-03-01T00:29:01;20.53;;;8.57;;
19384;SDS011;9828;54.122;17.974;2023-03-01T00:34:22;15.30;;;7.30;;
19384;SDS011;9828;54.122;17.974;2023-03-01T00:39:46;14.00;;;6.53;;
19384;SDS011;9828;54.122;17.974;2023-03-01T00:45:08;10.30;;;4.90;;
19384;SDS011;9828;54.122;17.974;2023-03-01T00:50:30;11.47;;;4.80;;
19384;SDS011;9828;54.122;17.974;2023-03-01T00:55:51;12.13;;;4.40;;
19384;SDS011;9828;54.122;17.974;2023-03-01T01:01:14;10.00;;;4.13;;
19384;SDS011;9828;54.122;17.974;2023-03-01T01:06:41;7.07;;;4.13;;
19384;SDS011;9828;54.122;17.974;2023-03-01T01:12:06;7.03;;;3.90;;
19384;SDS011;9828;54.122;17.974;2023-03-01T01:17:28;7.47;;;4.20;;
19384;SDS011;9828;54.122;17.974;2023-03-01T01:28:48;9.50;;;5.00;;
19384;SDS011;9828;54.122;17.974;2023-03-01T01:34:14;13.10;;;5.57;;
19384;SDS011;9828;54.122;17.974;2023-03-01T01:39:37;10.30;;;5.33;;
19384;SDS011;9828;54.122;17.974;2023-03-01T01:45:24;11.17;;;5.27;;
19384;SDS011;9828;54.122;17.974;2023-03-01T01:50:46;6.90;;;3.63;;
19384;SDS011;9828;54.122;17.974;2023-03-01T01:56:15;8.50;;;3.87;;
19384;SDS011;9828;54.122;17.974;2023-03-01T02:01:39;6.97;;;3.93;;
19384;SDS011;9828;54.122;17.974;2023-03-01T02:07:06;7.13;;;4.00;;
19384;SDS011;9828;54.122;17.974;2023-03-01T02:12:35;8.53;;;4.00;;
19384;SDS011;9828;54.122;17.974;2023-03-01T02:17:58;10.23;;;4.40;;
19384;SDS011;9828;54.122;17.974;2023-03-01T02:23:20;8.47;;;4.60;;
19384;SDS011;9828;54.122;17.974;2023-03-01T02:28:42;11.43;;;4.97;;
19384;SDS011;9828;54.122;17.974;2023-03-01T02:34:05;10.20;;;4.30;;
19384;SDS011;9828;54.122;17.974;2023-03-01T02:39:29;10.47;;;5.10;;
19384;SDS011;9828;54.122;17.974;2023-03-01T02:44:54;8.87;;;4.50;;
19384;SDS011;9828;54.122;17.974;2023-03-01T02:56:00;9.23;;;3.90;;
19384;SDS011;9828;54.122;17.974;2023-03-01T03:01:22;7.47;;;4.30;;
19384;SDS011;9828;54.122;17.974;2023-03-01T03:06:58;11.37;;;5.37;;
19384;SDS011;9828;54.122;17.974;2023-03-01T03:12:19;11.97;;;5.37;;
19384;SDS011;9828;54.122;17.974;2023-03-01T03:17:41;18.47;;;7.47;;
19384;SDS011;9828;54.122;17.974;2023-03-01T03:23:05;14.53;;;7.10;;
19384;SDS011;9828;54.122;17.974;2023-03-01T03:28:27;16.43;;;6.87;;
19384;SDS011;9828;54.122;17.974;2023-03-01T03:33:48;18.43;;;8.20;;
19384;SDS011;9828;54.122;17.974;2023-03-01T03:39:10;15.03;;;6.27;;
19384;SDS011;9828;54.122;17.974;2023-03-01T03:44:31;16.50;;;8.20;;
19384;SDS011;9828;54.122;17.974;2023-03-01T03:49:52;18.03;;;7.50;;
19384;SDS011;9828;54.122;17.974;2023-03-01T03:55:14;16.53;;;8.33;;
19384;SDS011;9828;54.122;17.974;2023-03-01T04:00:40;20.70;;;10.20;;
19384;SDS011;9828;54.122;17.974;2023-03-01T04:06:03;20.13;;;10.00;;
19384;SDS011;9828;54.122;17.974;2023-03-01T04:11:25;17.83;;;9.77;;
19384;SDS011;9828;54.122;17.974;2023-03-01T04:16:47;26.80;;;10.80;;
19384;SDS011;9828;54.122;17.974;2023-03-01T04:22:08;21.53;;;11.00;;
19384;SDS011;9828;54.122;17.974;2023-03-01T04:27:33;22.50;;;10.83;;
19384;SDS011;9828;54.122;17.974;2023-03-01T04:32:54;24.07;;;11.13;;
19384;SDS011;9828;54.122;17.974;2023-03-01T04:38:19;22.17;;;10.00;;
19384;SDS011;9828;54.122;17.974;2023-03-01T04:43:41;22.87;;;10.90;;
19384;SDS011;9828;54.122;17.974;2023-03-01T04:49:03;22.83;;;10.77;;
19384;SDS011;9828;54.122;17.974;2023-03-01T04:54:24;19.80;;;11.07;;
19384;SDS011;9828;54.122;17.974;2023-03-01T04:59:45;24.17;;;11.50;;
19384;SDS011;9828;54.122;17.974;2023-03-01T05:05:06;29.63;;;13.57;;
19384;SDS011;9828;54.122;17.974;2023-03-01T05:10:28;28.30;;;12.73;;
19384;SDS011;9828;54.122;17.974;2023-03-01T05:21:21;27.70;;;14.33;;
19384;SDS011;9828;54.122;17.974;2023-03-01T05:26:43;31.63;;;13.47;;
19384;SDS011;9828;54.122;17.974;2023-03-01T05:32:14;31.10;;;15.40;;
19384;SDS011;9828;54.122;17.974;2023-03-01T05:37:36;29.57;;;13.97;;
19384;SDS011;9828;54.122;17.974;2023-03-01T05:42:57;27.10;;;13.73;;
19384;SDS011;9828;54.122;17.974;2023-03-01T05:48:18;25.20;;;14.13;;
19384;SDS011;9828;54.122;17.974;2023-03-01T05:53:40;27.87;;;14.40;;
19384;SDS011;9828;54.122;17.974;2023-03-01T05:59:02;29.73;;;14.40;;
19384;SDS011;9828;54.122;17.974;2023-03-01T06:04:25;20.37;;;12.80;;
19384;SDS011;9828;54.122;17.974;2023-03-01T06:09:46;24.20;;;13.40;;
19384;SDS011;9828;54.122;17.974;2023-03-01T06:15:08;24.53;;;13.63;;
19384;SDS011;9828;54.122;17.974;2023-03-01T06:20:31;23.83;;;12.93;;
19384;SDS011;9828;54.122;17.974;2023-03-01T06:25:52;25.27;;;12.77;;
19384;SDS011;9828;54.122;17.974;2023-03-01T06:31:13;21.30;;;12.60;;
19384;SDS011;9828;54.122;17.974;2023-03-01T06:36:35;29.10;;;14.43;;
19384;SDS011;9828;54.122;17.974;2023-03-01T06:41:56;21.50;;;12.93;;
19384;SDS011;9828;54.122;17.974;2023-03-01T06:47:17;23.83;;;13.53;;
19384;SDS011;9828;54.122;17.974;2023-03-01T06:52:38;28.10;;;15.30;;
19384;SDS011;9828;54.122;17.974;2023-03-01T06:58:01;26.03;;;14.27;;
19384;SDS011;9828;54.122;17.974;2023-03-01T07:03:23;40.60;;;20.80;;
19384;SDS011;9828;54.122;17.974;2023-03-01T07:08:45;59.80;;;28.27;;
19384;SDS011;9828;54.122;17.974;2023-03-01T07:14:06;65.73;;;31.53;;
19384;SDS011;9828;54.122;17.974;2023-03-01T07:19:28;101.87;;;43.43;;
19384;SDS011;9828;54.122;17.974;2023-03-01T07:24:49;105.60;;;41.40;;
19384;SDS011;9828;54.122;17.974;2023-03-01T07:30:11;44.30;;;18.93;;
19384;SDS011;9828;54.122;17.974;2023-03-01T07:35:32;209.03;;;73.90;;
19384;SDS011;9828;54.122;17.974;2023-03-01T07:40:57;307.13;;;113.57;;
19384;SDS011;9828;54.122;17.974;2023-03-01T07:46:20;48.13;;;25.93;;
19384;SDS011;9828;54.122;17.974;2023-03-01T07:51:42;33.23;;;17.67;;
19384;SDS011;9828;54.122;17.974;2023-03-01T07:57:04;26.60;;;13.00;;
19384;SDS011;9828;54.122;17.974;2023-03-01T08:02:25;19.40;;;11.70;;
19384;SDS011;9828;54.122;17.974;2023-03-01T08:07:47;22.80;;;12.23;;
19384;SDS011;9828;54.122;17.974;2023-03-01T08:13:09;19.77;;;11.57;;
19384;SDS011;9828;54.122;17.974;2023-03-01T08:18:30;19.97;;;10.63;;
19384;SDS011;9828;54.122;17.974;2023-03-01T08:23:51;22.60;;;12.53;;
19384;SDS011;9828;54.122;17.974;2023-03-01T08:29:12;16.67;;;9.80;;
19384;SDS011;9828;54.122;17.974;2023-03-01T08:34:33;20.60;;;10.60;;
19384;SDS011;9828;54.122;17.974;2023-03-01T08:39:56;20.43;;;10.77;;
19384;SDS011;9828;54.122;17.974;2023-03-01T08:45:18;15.63;;;8.93;;
19384;SDS011;9828;54.122;17.974;2023-03-01T08:50:39;16.37;;;9.13;;
19384;SDS011;9828;54.122;17.974;2023-03-01T08:56:01;27.83;;;13.97;;
19384;SDS011;9828;54.122;17.974;2023-03-01T09:01:23;20.57;;;10.40;;
19384;SDS011;9828;54.122;17.974;2023-03-01T09:06:45;18.63;;;10.43;;
19384;SDS011;9828;54.122;17.974;2023-03-01T09:18:31;25.53;;;13.80;;
19384;SDS011;9828;54.122;17.974;2023-03-01T09:23:55;23.00;;;10.23;;
19384;SDS011;9828;54.122;17.974;2023-03-01T09:29:19;20.53;;;10.53;;
19384;SDS011;9828;54.122;17.974;2023-03-01T09:34:45;26.40;;;13.50;;
19384;SDS011;9828;54.122;17.974;2023-03-01T09:40:26;22.13;;;11.70;;
19384;SDS011;9828;54.122;17.974;2023-03-01T09:45:50;15.30;;;8.97;;
19384;SDS011;9828;54.122;17.974;2023-03-01T09:51:26;21.67;;;10.63;;
19384;SDS011;9828;54.122;17.974;2023-03-01T09:57:15;18.00;;;10.43;;
19384;SDS011;9828;54.122;17.974;2023-03-01T10:03:09;20.90;;;10.47;;
19384;SDS011;9828;54.122;17.974;2023-03-01T10:14:59;19.33;;;10.47;;
19384;SDS011;9828;54.122;17.974;2023-03-01T10:31:56;22.20;;;11.83;;
19384;SDS011;9828;54.122;17.974;2023-03-01T10:37:23;23.67;;;12.73;;
19384;SDS011;9828;54.122;17.974;2023-03-01T10:42:47;22.63;;;10.77;;
19384;SDS011;9828;54.122;17.974;2023-03-01T10:48:23;19.93;;;10.73;;
19384;SDS011;9828;54.122;17.974;2023-03-01T10:53:49;28.40;;;13.97;;
19384;SDS011;9828;54.122;17.974;2023-03-01T10:59:19;22.07;;;12.70;;
19384;SDS011;9828;54.122;17.974;2023-03-01T11:10:36;36.93;;;20.67;;
19384;SDS011;9828;54.122;17.974;2023-03-01T11:16:10;52.83;;;31.93;;
19384;SDS011;9828;54.122;17.974;2023-03-01T11:21:35;29.13;;;17.13;;
19384;SDS011;9828;54.122;17.974;2023-03-01T11:27:16;23.77;;;13.37;;
19384;SDS011;9828;54.122;17.974;2023-03-01T11:44:52;24.93;;;13.53;;
19384;SDS011;9828;54.122;17.974;2023-03-01T11:50:18;24.37;;;12.33;;
19384;SDS011;9828;54.122;17.974;2023-03-01T11:55:53;18.13;;;10.93;;
19384;SDS011;9828;54.122;17.974;2023-03-01T12:07:09;22.40;;;12.43;;
19384;SDS011;9828;54.122;17.974;2023-03-01T12:23:55;15.70;;;9.33;;
19384;SDS011;9828;54.122;17.974;2023-03-01T12:34:49;18.50;;;11.23;;
19384;SDS011;9828;54.122;17.974;2023-03-01T12:40:46;17.57;;;10.80;;
19384;SDS011;9828;54.122;17.974;2023-03-01T12:52:25;19.43;;;11.73;;
19384;SDS011;9828;54.122;17.974;2023-03-01T13:15:13;21.00;;;12.47;;
19384;SDS011;9828;54.122;17.974;2023-03-01T13:20:58;16.00;;;9.23;;
19384;SDS011;9828;54.122;17.974;2023-03-01T13:26:21;19.43;;;11.33;;
19384;SDS011;9828;54.122;17.974;2023-03-01T13:31:55;18.73;;;10.17;;
19384;SDS011;9828;54.122;17.974;2023-03-01T13:37:21;18.57;;;10.43;;
19384;SDS011;9828;54.122;17.974;2023-03-01T13:42:54;15.33;;;9.43;;
19384;SDS011;9828;54.122;17.974;2023-03-01T13:48:28;19.17;;;10.90;;
19384;SDS011;9828;54.122;17.974;2023-03-01T13:53:51;23.57;;;13.67;;
19384;SDS011;9828;54.122;17.974;2023-03-01T13:59:19;20.97;;;12.53;;
19384;SDS011;9828;54.122;17.974;2023-03-01T14:04:42;18.80;;;12.60;;
19384;SDS011;9828;54.122;17.974;2023-03-01T14:10:03;16.23;;;11.27;;
19384;SDS011;9828;54.122;17.974;2023-03-01T14:20:58;14.57;;;9.70;;
19384;SDS011;9828;54.122;17.974;2023-03-01T14:26:20;21.20;;;11.13;;
19384;SDS011;9828;54.122;17.974;2023-03-01T14:31:43;27.60;;;14.97;;
19384;SDS011;9828;54.122;17.974;2023-03-01T14:37:32;17.60;;;11.87;;
19384;SDS011;9828;54.122;17.974;2023-03-01T14:42:55;17.93;;;11.23;;
19384;SDS011;9828;54.122;17.974;2023-03-01T14:48:19;20.10;;;11.43;;
19384;SDS011;9828;54.122;17.974;2023-03-01T14:53:41;17.93;;;11.20;;
19384;SDS011;9828;54.122;17.974;2023-03-01T14:59:10;16.53;;;11.20;;
19384;SDS011;9828;54.122;17.974;2023-03-01T15:04:32;20.63;;;12.17;;
19384;SDS011;9828;54.122;17.974;2023-03-01T15:09:54;21.33;;;12.13;;
19384;SDS011;9828;54.122;17.974;2023-03-01T15:15:50;23.10;;;14.00;;
19384;SDS011;9828;54.122;17.974;2023-03-01T15:21:08;21.47;;;12.83;;
19384;SDS011;9828;54.122;17.974;2023-03-01T15:26:41;18.33;;;11.10;;
19384;SDS011;9828;54.122;17.974;2023-03-01T15:32:05;20.63;;;12.33;;
19384;SDS011;9828;54.122;17.974;2023-03-01T15:37:46;20.13;;;9.80;;
19384;SDS011;9828;54.122;17.974;2023-03-01T15:43:14;20.97;;;12.13;;
19384;SDS011;9828;54.122;17.974;2023-03-01T15:49:05;45.33;;;22.43;;
19384;SDS011;9828;54.122;17.974;2023-03-01T15:55:18;47.20;;;23.63;;
19384;SDS011;9828;54.122;17.974;2023-03-01T16:00:42;28.53;;;14.63;;
19384;SDS011;9828;54.122;17.974;2023-03-01T16:06:20;34.83;;;15.83;;
19384;SDS011;9828;54.122;17.974;2023-03-01T16:11:41;30.23;;;16.13;;
19384;SDS011;9828;54.122;17.974;2023-03-01T16:17:03;31.43;;;16.90;;
19384;SDS011;9828;54.122;17.974;2023-03-01T16:22:24;48.20;;;22.87;;
19384;SDS011;9828;54.122;17.974;2023-03-01T16:27:48;59.20;;;27.57;;
19384;SDS011;9828;54.122;17.974;2023-03-01T16:33:10;65.00;;;28.70;;
19384;SDS011;9828;54.122;17.974;2023-03-01T16:38:44;52.50;;;27.67;;
19384;SDS011;9828;54.122;17.974;2023-03-01T16:44:08;67.07;;;30.00;;
19384;SDS011;9828;54.122;17.974;2023-03-01T16:49:29;69.93;;;30.53;;
19384;SDS011;9828;54.122;17.974;2023-03-01T16:54:51;39.93;;;22.40;;
19384;SDS011;9828;54.122;17.974;2023-03-01T17:00:12;31.47;;;18.57;;
19384;SDS011;9828;54.122;17.974;2023-03-01T17:05:35;27.00;;;17.40;;
19384;SDS011;9828;54.122;17.974;2023-03-01T17:11:10;25.70;;;15.47;;
19384;SDS011;9828;54.122;17.974;2023-03-01T17:16:33;30.97;;;16.00;;
19384;SDS011;9828;54.122;17.974;2023-03-01T17:21:55;28.30;;;15.17;;
19384;SDS011;9828;54.122;17.974;2023-03-01T17:27:16;30.03;;;17.33;;
19384;SDS011;9828;54.122;17.974;2023-03-01T17:32:38;42.40;;;22.33;;
19384;SDS011;9828;54.122;17.974;2023-03-01T17:38:00;43.77;;;22.43;;
19384;SDS011;9828;54.122;17.974;2023-03-01T17:43:21;43.80;;;24.00;;
19384;SDS011;9828;54.122;17.974;2023-03-01T17:48:43;41.63;;;22.70;;
19384;SDS011;9828;54.122;17.974;2023-03-01T17:54:04;37.93;;;20.80;;
19384;SDS011;9828;54.122;17.974;2023-03-01T17:59:26;34.87;;;19.47;;
19384;SDS011;9828;54.122;17.974;2023-03-01T18:04:50;35.53;;;21.37;;
19384;SDS011;9828;54.122;17.974;2023-03-01T18:10:12;42.23;;;23.53;;
19384;SDS011;9828;54.122;17.974;2023-03-01T18:15:34;55.40;;;32.03;;
19384;SDS011;9828;54.122;17.974;2023-03-01T18:20:56;94.80;;;49.57;;
19384;SDS011;9828;54.122;17.974;2023-03-01T18:26:18;120.97;;;63.53;;
19384;SDS011;9828;54.122;17.974;2023-03-01T18:31:42;141.80;;;64.13;;
19384;SDS011;9828;54.122;17.974;2023-03-01T18:37:03;154.13;;;69.83;;
19384;SDS011;9828;54.122;17.974;2023-03-01T18:42:31;153.67;;;76.80;;
19384;SDS011;9828;54.122;17.974;2023-03-01T18:47:52;180.50;;;82.30;;
19384;SDS011;9828;54.122;17.974;2023-03-01T18:53:13;116.17;;;54.83;;
19384;SDS011;9828;54.122;17.974;2023-03-01T18:58:35;55.90;;;31.53;;
19384;SDS011;9828;54.122;17.974;2023-03-01T19:03:57;43.83;;;24.97;;
19384;SDS011;9828;54.122;17.974;2023-03-01T19:09:18;40.10;;;23.53;;
19384;SDS011;9828;54.122;17.974;2023-03-01T19:14:40;61.30;;;36.33;;
19384;SDS011;9828;54.122;17.974;2023-03-01T19:20:01;64.23;;;41.23;;
19384;SDS011;9828;54.122;17.974;2023-03-01T19:25:23;50.07;;;27.27;;
19384;SDS011;9828;54.122;17.974;2023-03-01T19:30:44;47.73;;;24.63;;
19384;SDS011;9828;54.122;17.974;2023-03-01T19:36:09;50.73;;;27.43;;
19384;SDS011;9828;54.122;17.974;2023-03-01T19:41:32;36.47;;;21.57;;
19384;SDS011;9828;54.122;17.974;2023-03-01T19:46:54;35.43;;;21.53;;
19384;SDS011;9828;54.122;17.974;2023-03-01T19:52:16;32.60;;;17.80;;
19384;SDS011;9828;54.122;17.974;2023-03-01T19:57:38;24.50;;;15.33;;
19384;SDS011;9828;54.122;17.974;2023-03-01T20:02:59;25.40;;;14.73;;
19384;SDS011;9828;54.122;17.974;2023-03-01T20:08:21;23.83;;;12.90;;
19384;SDS011;9828;54.122;17.974;2023-03-01T20:13:43;25.87;;;16.27;;
19384;SDS011;9828;54.122;17.974;2023-03-01T20:19:05;28.97;;;16.27;;
19384;SDS011;9828;54.122;17.974;2023-03-01T20:24:27;18.57;;;11.63;;
19384;SDS011;9828;54.122;17.974;2023-03-01T20:29:48;23.30;;;14.30;;
19384;SDS011;9828;54.122;17.974;2023-03-01T20:35:09;24.80;;;13.00;;
19384;SDS011;9828;54.122;17.974;2023-03-01T20:40:31;20.03;;;12.33;;
19384;SDS011;9828;54.122;17.974;2023-03-01T20:45:52;21.90;;;14.47;;
19384;SDS011;9828;54.122;17.974;2023-03-01T20:51:14;27.13;;;14.77;;
19384;SDS011;9828;54.122;17.974;2023-03-01T20:56:35;23.50;;;12.97;;
19384;SDS011;9828;54.122;17.974;2023-03-01T21:01:57;29.27;;;17.83;;
19384;SDS011;9828;54.122;17.974;2023-03-01T21:07:18;32.63;;;19.93;;
19384;SDS011;9828;54.122;17.974;2023-03-01T21:12:39;19.87;;;12.83;;
19384;SDS011;9828;54.122;17.974;2023-03-01T21:18:01;13.07;;;8.87;;
19384;SDS011;9828;54.122;17.974;2023-03-01T21:23:22;22.10;;;12.73;;
19384;SDS011;9828;54.122;17.974;2023-03-01T21:28:48;29.67;;;16.80;;
19384;SDS011;9828;54.122;17.974;2023-03-01T21:34:11;24.43;;;15.60;;
19384;SDS011;9828;54.122;17.974;2023-03-01T21:39:35;16.03;;;10.93;;
19384;SDS011;9828;54.122;17.974;2023-03-01T21:44:57;18.60;;;10.10;;
19384;SDS011;9828;54.122;17.974;2023-03-01T21:50:21;24.30;;;12.30;;
19384;SDS011;9828;54.122;17.974;2023-03-01T21:55:47;31.23;;;13.47;;
19384;SDS011;9828;54.122;17.974;2023-03-01T22:01:13;16.20;;;8.90;;
19384;SDS011;9828;54.122;17.974;2023-03-01T22:06:36;14.60;;;8.70;;
19384;SDS011;9828;54.122;17.974;2023-03-01T22:12:09;12.57;;;8.10;;
19384;SDS011;9828;54.122;17.974;2023-03-01T22:17:44;7.63;;;5.40;;
19384;SDS011;9828;54.122;17.974;2023-03-01T22:23:06;9.50;;;6.60;;
19384;SDS011;9828;54.122;17.974;2023-03-01T22:28:30;13.70;;;7.80;;
19384;SDS011;9828;54.122;17.974;2023-03-01T22:33:52;10.93;;;6.83;;
19384;SDS011;9828;54.122;17.974;2023-03-01T22:39:16;12.70;;;7.07;;
19384;SDS011;9828;54.122;17.974;2023-03-01T22:44:53;12.07;;;6.67;;
19384;SDS011;9828;54.122;17.974;2023-03-01T22:50:15;16.67;;;7.63;;
19384;SDS011;9828;54.122;17.974;2023-03-01T22:55:36;14.40;;;7.67;;
19384;SDS011;9828;54.122;17.974;2023-03-01T23:00:58;12.30;;;7.10;;
19384;SDS011;9828;54.122;17.974;2023-03-01T23:06:19;17.13;;;10.60;;
19384;SDS011;9828;54.122;17.974;2023-03-01T23:11:42;17.03;;;9.37;;
19384;SDS011;9828;54.122;17.974;2023-03-01T23:17:04;14.27;;;8.20;;
19384;SDS011;9828;54.122;17.974;2023-03-01T23:22:29;18.47;;;7.60;;
19384;SDS011;9828;54.122;17.974;2023-03-01T23:27:50;12.23;;;6.93;;
19384;SDS011;9828;54.122;17.974;2023-03-01T23:33:13;9.70;;;5.50;;
19384;SDS011;9828;54.122;17.974;2023-03-01T23:38:34;9.27;;;4.80;;
19384;SDS011;9828;54.122;17.974;2023-03-01T23:43:56;9.87;;;5.30;;
19384;SDS011;9828;54.122;17.974;2023-03-01T23:49:19;10.80;;;6.70;;
19384;SDS011;9828;54.122;17.974;2023-03-01T23:54:42;13.43;;;7.87;;
